KFRG

Republic Airport

Farmingdale, New York, USA
METAR KFRG 160953Z AUTO 29010KT 10SM CLR M03/M09 A2997 RMK AO2 SLP149 T10331089
Observed Flight Rules
Dec-16 @ 09:53 UTC (an hour ago) Visual Flight Rules
Wind Visibility Clouds
290° at 10 knots 10 miles
  • Clear skies
Temperatures Readings
Current -3°C / 27°F
Dewpoint -9°C / 16°F
Humidity 64%
Altimeter 29.97" Hg
Pressure 1014.9 hPa
Elevation 21
METAR KFRG 160953Z AUTO 29010KT 10SM CLR M03/M09 A2997 RMK AO2 SLP149 T10331089
Observed Flight Rules
Dec-16 @ 09:53 UTC
(an hour ago)
VFR
Wind Visibility
290° at 10 knots 10 miles
Clouds
  • Clear skies
Temperature Dewpoint
-3°C / 27°F -9°C / 16°F
Humidity Altimeter Pressure
64% 29.97" Hg 1014.9 hPa